createdAt,value
2017-12-06T00:01:08.127Z,8.33
2017-12-06T00:02:29.569Z,8.37
2017-12-06T00:03:51.274Z,8.29
2017-12-06T00:05:13.245Z,8.36
2017-12-06T00:06:35.524Z,8.33
2017-12-06T00:07:57.485Z,8.3
2017-12-06T00:09:19.445Z,8.36
2017-12-06T00:10:41.417Z,8.28
2017-12-06T00:12:03.102Z,8.38
2017-12-06T00:13:24.876Z,8.28
2017-12-06T00:14:46.597Z,8.37
2017-12-06T00:16:08.405Z,8.34
2017-12-06T00:17:30.106Z,8.33
2017-12-06T00:18:52.086Z,8.34
2017-12-06T00:20:13.813Z,8.33
2017-12-06T00:21:35.599Z,8.34
2017-12-06T00:22:57.319Z,8.29
2017-12-06T00:24:19.083Z,8.28
2017-12-06T00:25:41.305Z,8.29
2017-12-06T00:27:02.725Z,8.28
2017-12-06T00:28:24.692Z,8.28
2017-12-06T00:29:46.242Z,8.3
2017-12-06T00:31:07.699Z,8.19
2017-12-06T00:32:29.506Z,8.37
2017-12-06T00:33:51.746Z,8.33
2017-12-06T00:35:13.704Z,8.25
2017-12-06T00:36:36.010Z,8.33
2017-12-06T00:37:58.064Z,8.33
2017-12-06T00:39:20.311Z,8.33
2017-12-06T00:40:42.544Z,8.33
2017-12-06T00:42:04.764Z,8.28
2017-12-06T00:43:26.473Z,8.29
2017-12-06T00:44:48.705Z,8.28
2017-12-06T00:46:10.714Z,8.33
2017-12-06T00:47:32.706Z,8.33
2017-12-06T00:48:54.767Z,8.36
2017-12-06T00:50:16.481Z,8.37
2017-12-06T00:51:38.715Z,8.34
2017-12-06T00:53:00.526Z,8.41
2017-12-06T00:54:22.235Z,8.28
2017-12-06T00:55:43.943Z,8.33
2017-12-06T00:57:05.655Z,8.34
2017-12-06T00:58:27.098Z,8.28
2017-12-06T00:59:48.787Z,8.33
2017-12-06T01:01:10.499Z,8.37
2017-12-06T01:02:32.776Z,8.33
2017-12-06T01:03:54.466Z,8.3
2017-12-06T01:05:16.206Z,8.37
2017-12-06T01:06:37.916Z,8.3
2017-12-06T01:08:00.065Z,8.3
2017-12-06T01:09:21.816Z,8.3
2017-12-06T01:10:43.496Z,8.26
2017-12-06T01:12:05.075Z,8.3
2017-12-06T01:13:27.045Z,8.26
2017-12-06T01:14:48.751Z,8.4
2017-12-06T01:16:10.483Z,8.34
2017-12-06T01:17:32.178Z,8.29
2017-12-06T01:18:53.336Z,8.34
2017-12-06T01:20:14.754Z,8.33
2017-12-06T01:21:36.446Z,8.33
2017-12-06T01:22:58.186Z,8.34
2017-12-06T01:24:20.178Z,8.33
2017-12-06T01:25:41.876Z,8.3
2017-12-06T01:27:04.103Z,8.29
2017-12-06T01:28:26.057Z,8.26
2017-12-06T01:29:48.284Z,8.43
2017-12-06T01:31:10.130Z,8.4
2017-12-06T01:32:31.623Z,8.4
2017-12-06T01:33:53.584Z,8.3
2017-12-06T01:35:15.009Z,8.34
2017-12-06T01:36:36.216Z,8.33
2017-12-06T01:37:58.165Z,8.28
2017-12-06T01:39:19.594Z,8.25
2017-12-06T01:40:41.061Z,8.38
2017-12-06T01:42:03.034Z,8.43
2017-12-06T01:43:24.484Z,8.29
2017-12-06T01:44:46.501Z,8.34
2017-12-06T01:46:08.185Z,8.38
2017-12-06T01:47:30.034Z,8.29
2017-12-06T01:48:52.277Z,8.3
2017-12-06T01:50:13.532Z,8.34
2017-12-06T01:51:35.247Z,8.34
2017-12-06T01:52:57.725Z,8.34
2017-12-06T01:54:19.476Z,8.37
2017-12-06T01:55:40.704Z,8.34
2017-12-06T01:57:02.153Z,8.28
2017-12-06T01:58:25.695Z,8.3
2017-12-06T01:59:47.436Z,8.36
2017-12-06T02:01:09.717Z,8.22
2017-12-06T02:02:30.597Z,8.3
2017-12-06T02:03:52.975Z,8.37
2017-12-06T02:05:14.668Z,8.28
2017-12-06T02:06:36.648Z,8.37
2017-12-06T02:07:58.076Z,8.36
2017-12-06T02:09:19.776Z,8.28
2017-12-06T02:10:41.260Z,8.4
2017-12-06T02:12:03.235Z,8.36
2017-12-06T02:13:24.948Z,8.33
2017-12-06T02:14:46.955Z,8.26
2017-12-06T02:16:08.438Z,8.28
2017-12-06T02:17:30.396Z,8.28
2017-12-06T02:18:52.368Z,8.29
2017-12-06T02:20:13.860Z,8.26
2017-12-06T02:21:35.572Z,8.34
2017-12-06T02:22:57.619Z,8.28
2017-12-06T02:24:19.067Z,8.28
2017-12-06T02:25:41.036Z,8.26
2017-12-06T02:27:02.736Z,8.28
2017-12-06T02:28:24.728Z,8.26
2017-12-06T02:29:46.445Z,8.36
2017-12-06T02:31:08.156Z,8.19
2017-12-06T02:32:29.582Z,8.36
2017-12-06T02:33:51.274Z,8.36
2017-12-06T02:35:13.317Z,8.29
2017-12-06T02:36:35.018Z,8.26
2017-12-06T02:37:56.726Z,8.34
2017-12-06T02:39:18.711Z,8.28
2017-12-06T02:40:40.859Z,8.26
2017-12-06T02:42:02.885Z,8.3
2017-12-06T02:43:24.581Z,8.36
2017-12-06T02:44:46.547Z,8.37
2017-12-06T02:46:08.296Z,8.34
2017-12-06T02:47:30.253Z,8.36
2017-12-06T02:48:52.654Z,8.28
2017-12-06T02:50:13.824Z,8.26
2017-12-06T02:51:35.197Z,8.36
2017-12-06T02:52:57.319Z,8.28
2017-12-06T02:54:19.103Z,8.29
2017-12-06T02:55:40.924Z,8.33
2017-12-06T02:57:02.944Z,8.36
2017-12-06T02:58:25.425Z,8.33
2017-12-06T02:59:47.152Z,8.28
2017-12-06T03:01:09.195Z,8.26
2017-12-06T03:02:30.909Z,8.36
2017-12-06T03:03:52.346Z,8.33
2017-12-06T03:05:14.091Z,8.26
2017-12-06T03:06:36.050Z,8.3
2017-12-06T03:07:58.024Z,8.28
2017-12-06T03:09:19.506Z,8.36
2017-12-06T03:10:41.296Z,8.19
2017-12-06T03:12:03.410Z,8.19
2017-12-06T03:13:24.836Z,8.33
2017-12-06T03:14:46.636Z,8.19
2017-12-06T03:16:08.585Z,8.25
2017-12-06T03:17:30.206Z,8.33
2017-12-06T03:18:52.507Z,8.26
2017-12-06T03:20:14.033Z,8.3
2017-12-06T03:21:35.719Z,8.26
2017-12-06T03:22:57.676Z,8.15
2017-12-06T03:24:19.104Z,8.22
2017-12-06T03:25:41.125Z,8.29
2017-12-06T03:27:02.821Z,8.22
2017-12-06T03:28:24.504Z,8.36
2017-12-06T03:29:46.215Z,8.36
2017-12-06T03:31:08.902Z,8.26
2017-12-06T03:32:30.144Z,8.33
2017-12-06T03:33:51.434Z,8.3
2017-12-06T03:35:13.451Z,8.2
2017-12-06T03:36:34.898Z,8.3
2017-12-06T03:37:56.623Z,8.33
2017-12-06T03:39:18.175Z,8.28
2017-12-06T03:40:39.965Z,8.43
2017-12-06T03:42:01.713Z,8.4
2017-12-06T03:43:23.282Z,8.36
2017-12-06T03:44:44.708Z,8.33
2017-12-06T03:46:06.125Z,8.3
2017-12-06T03:47:28.356Z,8.37
2017-12-06T03:48:50.056Z,8.34
2017-12-06T03:50:11.744Z,8.4
2017-12-06T03:51:34.116Z,8.26
2017-12-06T03:52:56.136Z,8.29
2017-12-06T03:54:17.577Z,8.22
2017-12-06T03:55:39.633Z,8.3
2017-12-06T03:57:01.494Z,8.28
2017-12-06T03:58:22.923Z,8.29
2017-12-06T03:59:44.624Z,8.3
2017-12-06T04:01:06.326Z,8.22
2017-12-06T04:02:28.028Z,8.29
2017-12-06T04:03:49.819Z,8.25
2017-12-06T04:05:11.912Z,8.3
2017-12-06T04:06:33.658Z,8.29
2017-12-06T04:07:55.953Z,8.3
2017-12-06T04:09:18.180Z,8.18
2017-12-06T04:10:39.976Z,8.28
2017-12-06T04:12:01.683Z,8.26
2017-12-06T04:13:23.666Z,8.36
2017-12-06T04:14:45.095Z,8.28
2017-12-06T04:16:06.879Z,8.23
2017-12-06T04:17:28.844Z,8.28
2017-12-06T04:18:50.585Z,8.29
2017-12-06T04:20:12.862Z,8.15
2017-12-06T04:21:34.589Z,8.26
2017-12-06T04:22:56.557Z,8.18
2017-12-06T04:24:18.374Z,8.15
2017-12-06T04:25:39.811Z,8.3
2017-12-06T04:27:01.613Z,8.23
2017-12-06T04:28:23.097Z,8.25
2017-12-06T04:29:44.802Z,8.23
2017-12-06T04:31:06.027Z,8.16
2017-12-06T04:32:27.784Z,8.25
2017-12-06T04:33:49.743Z,8.33
2017-12-06T04:35:11.567Z,8.19
2017-12-06T04:36:33.016Z,8.26
2017-12-06T04:37:55.245Z,8.29
2017-12-06T04:39:17.224Z,8.2
2017-12-06T04:40:38.725Z,8.28
2017-12-06T04:42:00.702Z,8.19
2017-12-06T04:43:22.145Z,8.19
2017-12-06T04:44:43.966Z,8.36
2017-12-06T04:46:06.194Z,8.25
2017-12-06T04:47:27.873Z,8.25
2017-12-06T04:48:49.416Z,8.18
2017-12-06T04:50:11.698Z,8.23
2017-12-06T04:51:34.066Z,8.28
2017-12-06T04:52:56.024Z,8.19
2017-12-06T04:54:18.000Z,8.29
2017-12-06T04:55:39.707Z,8.26
2017-12-06T04:57:01.798Z,8.36
2017-12-06T04:58:24.036Z,8.3
2017-12-06T04:59:45.760Z,8.36
2017-12-06T05:01:07.446Z,8.29
2017-12-06T05:02:29.138Z,8.33
2017-12-06T05:03:51.094Z,8.36
2017-12-06T05:05:12.544Z,8.3
2017-12-06T05:06:34.510Z,8.3
2017-12-06T05:07:56.244Z,8.3
2017-12-06T05:09:17.725Z,8.36
2017-12-06T05:10:39.468Z,8.29
2017-12-06T05:12:01.214Z,8.3
2017-12-06T05:13:23.171Z,8.26
2017-12-06T05:14:44.884Z,8.34
2017-12-06T05:16:06.404Z,8.33
2017-12-06T05:17:28.176Z,8.33
2017-12-06T05:18:50.628Z,8.26
2017-12-06T05:20:11.816Z,8.28
2017-12-06T05:21:33.277Z,8.28
2017-12-06T05:22:55.246Z,8.25
2017-12-06T05:24:16.944Z,8.2
2017-12-06T05:25:39.249Z,8.28
2017-12-06T05:27:00.961Z,8.3
2017-12-06T05:28:22.144Z,8.36
2017-12-06T05:29:43.853Z,8.22
2017-12-06T05:31:05.904Z,8.22
2017-12-06T05:32:28.267Z,8.28
2017-12-06T05:33:49.955Z,8.33
2017-12-06T05:35:11.927Z,8.22
2017-12-06T05:36:33.915Z,8.37
2017-12-06T05:37:55.361Z,8.22
2017-12-06T05:39:17.330Z,8.36
2017-12-06T05:40:39.314Z,8.37
2017-12-06T05:42:01.658Z,8.29
2017-12-06T05:43:23.089Z,8.29
2017-12-06T05:44:45.053Z,8.37
2017-12-06T05:46:07.015Z,8.3
2017-12-06T05:47:28.824Z,8.28
2017-12-06T05:48:50.029Z,8.3
2017-12-06T05:50:11.997Z,8.3
2017-12-06T05:51:33.845Z,8.36
2017-12-06T05:52:55.623Z,8.33
2017-12-06T05:54:17.844Z,8.26
2017-12-06T05:55:39.598Z,8.36
2017-12-06T05:57:01.573Z,8.36
2017-12-06T05:58:23.571Z,8.26
2017-12-06T05:59:45.571Z,8.3
2017-12-06T06:01:07.273Z,8.2
2017-12-06T06:02:28.733Z,8.3
2017-12-06T06:03:50.426Z,8.4
2017-12-06T06:05:12.031Z,8.3
2017-12-06T06:06:33.770Z,8.29
2017-12-06T06:07:55.578Z,8.25
2017-12-06T06:09:17.270Z,8.3
2017-12-06T06:10:39.064Z,8.29
2017-12-06T06:12:00.764Z,8.3
2017-12-06T06:13:22.506Z,8.29
2017-12-06T06:14:44.773Z,8.28
2017-12-06T06:16:06.473Z,8.23
2017-12-06T06:17:28.200Z,8.19
2017-12-06T06:18:49.898Z,8.33
2017-12-06T06:20:11.875Z,8.23
2017-12-06T06:21:33.675Z,8.33
2017-12-06T06:22:55.117Z,8.34
2017-12-06T06:24:17.176Z,8.26
2017-12-06T06:25:39.166Z,8.29
2017-12-06T06:27:00.864Z,8.33
2017-12-06T06:28:22.584Z,8.26
2017-12-06T06:29:44.026Z,8.3
2017-12-06T06:31:05.992Z,8.28
2017-12-06T06:32:28.052Z,8.3
2017-12-06T06:33:50.138Z,8.36
2017-12-06T06:35:12.427Z,8.28
2017-12-06T06:36:34.446Z,8.3
2017-12-06T06:37:56.454Z,8.3
2017-12-06T06:39:18.434Z,8.38
2017-12-06T06:40:40.417Z,8.33
2017-12-06T06:42:02.229Z,8.38
2017-12-06T06:43:24.025Z,8.34
2017-12-06T06:44:45.544Z,8.37
2017-12-06T06:46:07.245Z,8.36
2017-12-06T06:47:29.257Z,8.3
2017-12-06T06:48:50.954Z,8.4
2017-12-06T06:50:12.664Z,8.33
2017-12-06T06:51:34.643Z,8.47
2017-12-06T06:52:56.614Z,8.41
2017-12-06T06:54:18.418Z,8.41
2017-12-06T06:55:39.874Z,8.45
2017-12-06T06:57:01.575Z,8.38
2017-12-06T06:58:23.264Z,8.4
2017-12-06T06:59:44.980Z,8.41
2017-12-06T07:01:06.802Z,8.44
2017-12-06T07:02:29.055Z,8.4
2017-12-06T07:03:50.786Z,8.4
2017-12-06T07:05:12.754Z,8.38
2017-12-06T07:06:34.537Z,8.38
2017-12-06T07:07:56.227Z,8.47
2017-12-06T07:09:17.913Z,8.45
2017-12-06T07:10:40.159Z,8.43
2017-12-06T07:12:01.869Z,8.43
2017-12-06T07:13:23.569Z,8.44
2017-12-06T07:14:45.269Z,8.44
2017-12-06T07:16:07.526Z,8.43
2017-12-06T07:17:29.777Z,8.44
2017-12-06T07:18:51.615Z,8.38
2017-12-06T07:20:13.874Z,8.4
2017-12-06T07:21:35.843Z,8.44
2017-12-06T07:22:57.552Z,8.45
2017-12-06T07:24:19.790Z,8.47
2017-12-06T07:25:42.035Z,8.47
2017-12-06T07:27:03.204Z,8.47
2017-12-06T07:28:25.185Z,8.56
2017-12-06T07:29:47.150Z,8.48
2017-12-06T07:31:09.374Z,8.48
2017-12-06T07:32:30.819Z,8.55
2017-12-06T07:33:53.086Z,8.55
2017-12-06T07:35:14.826Z,8.59
2017-12-06T07:36:36.786Z,8.53
2017-12-06T07:37:58.746Z,8.5
2017-12-06T07:39:20.167Z,8.47
2017-12-06T07:40:42.183Z,8.56
2017-12-06T07:42:04.229Z,8.53
2017-12-06T07:43:26.187Z,8.56
2017-12-06T07:44:48.137Z,8.53
2017-12-06T07:46:10.094Z,8.52
2017-12-06T07:47:31.812Z,8.53
2017-12-06T07:48:53.816Z,8.53
2017-12-06T07:50:15.577Z,8.53
2017-12-06T07:51:37.275Z,8.62
2017-12-06T07:52:59.507Z,8.58
2017-12-06T07:54:21.218Z,8.66
2017-12-06T07:55:43.164Z,8.55
2017-12-06T07:57:04.498Z,8.63
2017-12-06T07:58:26.466Z,8.66
2017-12-06T07:59:48.437Z,8.65
2017-12-06T08:01:10.507Z,8.65
2017-12-06T08:02:32.585Z,8.7
2017-12-06T08:03:54.956Z,8.71
2017-12-06T08:05:17.186Z,8.7
2017-12-06T08:06:38.885Z,8.66
2017-12-06T08:08:01.158Z,8.65
2017-12-06T08:09:23.374Z,8.65
2017-12-06T08:10:45.502Z,8.66
2017-12-06T08:12:07.477Z,8.7
2017-12-06T08:13:29.454Z,8.7
2017-12-06T08:14:51.803Z,8.7
2017-12-06T08:16:13.228Z,8.71
2017-12-06T08:17:34.670Z,8.7
2017-12-06T08:18:56.456Z,8.7
2017-12-06T08:20:18.716Z,8.68
2017-12-06T08:21:40.949Z,8.76
2017-12-06T08:23:02.692Z,8.77
2017-12-06T08:24:24.146Z,8.73
2017-12-06T08:25:45.683Z,8.79
2017-12-06T08:27:07.384Z,8.77
2017-12-06T08:28:29.085Z,8.79
2017-12-06T08:29:51.055Z,8.77
2017-12-06T08:31:13.544Z,8.77
2017-12-06T08:32:35.279Z,8.77
2017-12-06T08:33:56.988Z,8.84
2017-12-06T08:35:18.175Z,8.76
2017-12-06T08:36:39.890Z,8.83
2017-12-06T08:38:01.585Z,8.83
2017-12-06T08:39:23.281Z,8.79
2017-12-06T08:40:44.734Z,8.77
2017-12-06T08:42:06.167Z,8.81
2017-12-06T08:43:28.006Z,8.84
2017-12-06T08:44:49.696Z,8.83
2017-12-06T08:46:11.146Z,8.81
2017-12-06T08:47:33.432Z,8.83
2017-12-06T08:48:55.232Z,8.8
2017-12-06T08:50:17.201Z,8.83
2017-12-06T08:51:39.015Z,8.94
2017-12-06T08:53:01.315Z,8.76
2017-12-06T08:54:22.855Z,8.76
2017-12-06T08:55:44.286Z,8.76
2017-12-06T08:57:05.985Z,8.83
2017-12-06T08:58:27.964Z,8.77
2017-12-06T08:59:49.695Z,8.76
2017-12-06T09:01:11.209Z,8.81
2017-12-06T09:02:33.231Z,8.8
2017-12-06T09:03:55.198Z,8.8
2017-12-06T09:05:17.445Z,8.83
2017-12-06T09:06:39.716Z,8.83
2017-12-06T09:08:01.174Z,8.91
2017-12-06T09:09:23.171Z,8.91
2017-12-06T09:10:44.346Z,8.95
2017-12-06T09:12:06.742Z,8.95
2017-12-06T09:13:28.455Z,8.99
2017-12-06T09:14:50.696Z,8.95
2017-12-06T09:16:12.215Z,8.96
2017-12-06T09:17:34.540Z,8.87
2017-12-06T09:18:56.513Z,9.04
2017-12-06T09:20:18.848Z,8.94
2017-12-06T09:21:40.545Z,8.95
2017-12-06T09:23:02.586Z,9.02
2017-12-06T09:24:24.338Z,8.99
2017-12-06T09:25:46.016Z,8.98
2017-12-06T09:27:07.864Z,9.02
2017-12-06T09:28:29.819Z,9.1
2017-12-06T09:29:52.067Z,9.05
2017-12-06T09:31:14.048Z,8.96
2017-12-06T09:32:36.061Z,9.04
2017-12-06T09:33:56.945Z,8.99
2017-12-06T09:35:18.383Z,9.08
2017-12-06T09:36:39.872Z,9.05
2017-12-06T09:38:02.106Z,9.02
2017-12-06T09:39:23.886Z,9.13
2017-12-06T09:40:46.236Z,9.1
2017-12-06T09:42:07.938Z,9.02
2017-12-06T09:43:29.654Z,9.04
2017-12-06T09:44:52.053Z,9.1
2017-12-06T09:46:14.107Z,9.14
2017-12-06T09:47:35.801Z,9.11
2017-12-06T09:48:57.854Z,9.04
2017-12-06T09:50:19.735Z,9.08
2017-12-06T09:51:41.828Z,9.08
2017-12-06T09:53:03.808Z,9.13
2017-12-06T09:54:26.116Z,9.11
2017-12-06T09:55:47.832Z,9.14
2017-12-06T09:57:10.064Z,9.14
2017-12-06T09:58:31.061Z,9.15
2017-12-06T09:59:53.057Z,9.15
2017-12-06T10:01:15.279Z,9.21
2017-12-06T10:02:37.023Z,9.15
2017-12-06T10:03:59.004Z,9.15
2017-12-06T10:05:21.374Z,9.18
2017-12-06T10:06:42.786Z,9.18
2017-12-06T10:08:04.779Z,9.18
2017-12-06T10:09:26.477Z,9.23
2017-12-06T10:10:48.725Z,9.14
2017-12-06T10:12:10.135Z,9.26
2017-12-06T10:13:32.395Z,9.26
2017-12-06T10:14:54.972Z,9.26
2017-12-06T10:16:16.415Z,9.2
2017-12-06T10:17:37.876Z,9.24
2017-12-06T10:18:59.943Z,9.23
2017-12-06T10:20:21.674Z,9.28
2017-12-06T10:21:43.954Z,9.31
2017-12-06T10:23:05.664Z,9.31
2017-12-06T10:24:27.186Z,9.31
2017-12-06T10:25:49.184Z,9.28
2017-12-06T10:27:10.885Z,9.33
2017-12-06T10:28:32.684Z,9.24
2017-12-06T10:29:54.125Z,9.32
2017-12-06T10:31:15.827Z,9.33
2017-12-06T10:32:37.796Z,9.21
2017-12-06T10:33:59.489Z,9.23
2017-12-06T10:35:21.198Z,9.23
2017-12-06T10:36:43.614Z,9.18
2017-12-06T10:38:05.624Z,9.17
2017-12-06T10:39:27.924Z,9.21
2017-12-06T10:40:50.067Z,9.17
2017-12-06T10:42:12.045Z,9.15
2017-12-06T10:43:34.025Z,9.14
2017-12-06T10:44:55.453Z,9.15
2017-12-06T10:46:16.884Z,9.13
2017-12-06T10:47:38.905Z,9.17
2017-12-06T10:49:00.653Z,9.1
2017-12-06T10:50:22.354Z,9.17
2017-12-06T10:51:43.794Z,9.11
2017-12-06T10:53:05.487Z,9.17
2017-12-06T10:54:27.184Z,9.15
2017-12-06T10:55:48.703Z,9.17
2017-12-06T10:57:10.404Z,9.11
2017-12-06T10:58:32.134Z,9.18
2017-12-06T10:59:53.918Z,9.08
2017-12-06T11:01:15.945Z,9.2
2017-12-06T11:02:37.655Z,9.15
2017-12-06T11:03:59.197Z,9.17
2017-12-06T11:05:21.177Z,9.11
2017-12-06T11:06:42.324Z,9.26
2017-12-06T11:08:04.116Z,9.17
2017-12-06T11:09:25.533Z,9.23
2017-12-06T11:10:47.263Z,9.13
2017-12-06T11:12:09.327Z,9.18
2017-12-06T11:13:31.291Z,9.21
2017-12-06T11:14:53.305Z,9.14
2017-12-06T11:16:15.350Z,9.26
2017-12-06T11:17:37.057Z,9.29
2017-12-06T11:18:59.264Z,9.28
2017-12-06T11:20:21.777Z,9.21
2017-12-06T11:21:43.854Z,9.28
2017-12-06T11:23:05.744Z,9.29
2017-12-06T11:24:27.538Z,9.23
2017-12-06T11:25:49.836Z,9.31
2017-12-06T11:27:12.091Z,9.24
2017-12-06T11:28:33.805Z,9.28
2017-12-06T11:29:55.644Z,9.26
2017-12-06T11:31:17.366Z,9.31
2017-12-06T11:32:39.334Z,9.33
2017-12-06T11:34:00.868Z,9.38
2017-12-06T11:35:23.164Z,9.28
2017-12-06T11:36:44.889Z,9.31
2017-12-06T11:38:06.620Z,9.31
2017-12-06T11:39:28.072Z,9.33
2017-12-06T11:40:49.868Z,9.39
2017-12-06T11:42:11.836Z,9.38
2017-12-06T11:43:32.994Z,9.43
2017-12-06T11:44:54.712Z,9.42
2017-12-06T11:46:16.977Z,9.48
2017-12-06T11:47:38.680Z,9.47
2017-12-06T11:49:00.129Z,9.54
2017-12-06T11:50:21.580Z,9.57
2017-12-06T11:51:43.574Z,9.61
2017-12-06T11:53:05.323Z,9.56
2017-12-06T11:54:27.545Z,9.56
2017-12-06T11:55:49.879Z,9.58
2017-12-06T11:57:11.935Z,9.51
2017-12-06T11:58:33.894Z,9.61
2017-12-06T11:59:55.171Z,9.57
2017-12-06T12:01:17.224Z,9.6
2017-12-06T12:02:38.953Z,9.66
2017-12-06T12:04:00.664Z,9.66
2017-12-06T12:05:22.645Z,9.69
2017-12-06T12:06:44.353Z,9.71
2017-12-06T12:08:06.104Z,9.68
2017-12-06T12:09:27.810Z,9.65
2017-12-06T12:10:49.524Z,9.64
2017-12-06T12:12:11.245Z,9.54
2017-12-06T12:13:33.218Z,9.64
2017-12-06T12:14:55.240Z,9.68
2017-12-06T12:16:16.731Z,9.68
2017-12-06T12:17:38.425Z,9.66
2017-12-06T12:19:00.173Z,9.69
2017-12-06T12:20:21.885Z,9.66
2017-12-06T12:21:43.867Z,9.61
2017-12-06T12:23:05.587Z,9.61
2017-12-06T12:24:27.831Z,9.6
2017-12-06T12:25:50.300Z,9.61
2017-12-06T12:27:12.295Z,9.58
2017-12-06T12:28:34.296Z,9.58
2017-12-06T12:29:56.334Z,9.58
2017-12-06T12:31:18.582Z,9.61
2017-12-06T12:32:40.024Z,9.6
2017-12-06T12:34:01.741Z,9.6
2017-12-06T12:35:23.519Z,9.6
2017-12-06T12:36:45.046Z,9.61
2017-12-06T12:38:06.206Z,9.58
2017-12-06T12:39:28.177Z,9.61
2017-12-06T12:40:50.504Z,9.64
2017-12-06T12:42:12.220Z,9.58
2017-12-06T12:43:34.197Z,9.6
2017-12-06T12:44:55.634Z,9.57
2017-12-06T12:46:17.654Z,9.65
2017-12-06T12:47:39.431Z,9.6
2017-12-06T12:49:01.511Z,9.6
2017-12-06T12:50:23.491Z,9.61
2017-12-06T12:51:45.885Z,9.68
2017-12-06T12:53:07.365Z,9.58
2017-12-06T12:54:29.393Z,9.56
2017-12-06T12:55:51.723Z,9.6
2017-12-06T12:57:13.434Z,9.56
2017-12-06T12:58:35.135Z,9.64
2017-12-06T12:59:56.845Z,9.57
2017-12-06T13:01:19.098Z,9.58
2017-12-06T13:02:40.854Z,9.64
2017-12-06T13:04:03.124Z,9.61
2017-12-06T13:05:24.836Z,9.58
2017-12-06T13:06:46.805Z,9.6
2017-12-06T13:08:08.783Z,9.6
2017-12-06T13:09:30.497Z,9.58
2017-12-06T13:10:52.268Z,9.58
2017-12-06T13:12:14.274Z,9.56
2017-12-06T13:13:36.050Z,9.6
2017-12-06T13:14:57.775Z,9.58
2017-12-06T13:16:19.734Z,9.58
2017-12-06T13:17:41.864Z,9.58
2017-12-06T13:19:03.911Z,9.61
2017-12-06T13:20:26.163Z,9.54
2017-12-06T13:21:48.415Z,9.6
2017-12-06T13:23:09.853Z,9.64
2017-12-06T13:24:31.565Z,9.6
2017-12-06T13:25:53.534Z,9.58
2017-12-06T13:27:15.536Z,9.74
2017-12-06T13:28:37.660Z,9.68
2017-12-06T13:29:59.367Z,9.66
2017-12-06T13:31:21.107Z,9.74
2017-12-06T13:32:43.112Z,9.68
2017-12-06T13:34:04.307Z,9.61
2017-12-06T13:35:25.730Z,9.68
2017-12-06T13:36:47.984Z,9.58
2017-12-06T13:38:10.223Z,9.56
2017-12-06T13:39:31.654Z,9.58
2017-12-06T13:40:53.897Z,9.57
2017-12-06T13:42:15.912Z,9.64
2017-12-06T13:43:37.904Z,9.6
2017-12-06T13:44:59.765Z,9.57
2017-12-06T13:46:21.746Z,9.58
2017-12-06T13:47:43.472Z,9.57
2017-12-06T13:49:05.316Z,9.57
2017-12-06T13:50:27.283Z,9.58
2017-12-06T13:51:49.640Z,9.57
2017-12-06T13:53:11.639Z,9.6
2017-12-06T13:54:33.716Z,9.57
2017-12-06T13:55:55.984Z,9.6
2017-12-06T13:57:18.234Z,9.61
2017-12-06T13:58:40.500Z,9.57
2017-12-06T14:00:02.794Z,9.6
2017-12-06T14:01:24.228Z,9.64
2017-12-06T14:02:46.247Z,9.6
2017-12-06T14:04:07.718Z,9.6
2017-12-06T14:05:30.007Z,9.61
2017-12-06T14:06:52.294Z,9.56
2017-12-06T14:08:14.366Z,9.57
2017-12-06T14:09:36.644Z,9.58
2017-12-06T14:10:58.083Z,9.53
2017-12-06T14:12:20.367Z,9.57
2017-12-06T14:13:42.647Z,9.6
2017-12-06T14:15:05.016Z,9.54
2017-12-06T14:16:26.784Z,9.56
2017-12-06T14:17:48.778Z,9.58
2017-12-06T14:19:10.774Z,9.58
2017-12-06T14:20:32.767Z,9.61
2017-12-06T14:21:54.492Z,9.6
2017-12-06T14:23:16.492Z,9.64
2017-12-06T14:24:38.216Z,9.58
2017-12-06T14:26:00.596Z,9.6
2017-12-06T14:27:22.964Z,9.54
2017-12-06T14:28:45.399Z,9.58
2017-12-06T14:30:07.476Z,9.58
2017-12-06T14:31:29.595Z,9.58
2017-12-06T14:32:51.317Z,9.56
2017-12-06T14:34:13.327Z,9.53
2017-12-06T14:35:35.346Z,9.56
2017-12-06T14:36:57.057Z,9.56
2017-12-06T14:38:18.906Z,9.54
2017-12-06T14:39:40.431Z,9.58
2017-12-06T14:41:02.277Z,9.56
2017-12-06T14:42:23.988Z,9.57
2017-12-06T14:43:46.239Z,9.61
2017-12-06T14:45:08.485Z,9.58
2017-12-06T14:46:30.775Z,9.53
2017-12-06T14:47:53.037Z,9.61
2017-12-06T14:49:15.089Z,9.64
2017-12-06T14:50:37.097Z,9.61
2017-12-06T14:51:58.884Z,9.57
2017-12-06T14:53:20.865Z,9.58
2017-12-06T14:54:42.853Z,9.61
2017-12-06T14:56:04.698Z,9.6
2017-12-06T14:57:26.759Z,9.57
2017-12-06T14:58:48.799Z,9.6
2017-12-06T15:00:11.076Z,9.58
2017-12-06T15:01:33.359Z,9.57
2017-12-06T15:02:55.616Z,9.6
2017-12-06T15:04:17.667Z,9.57
2017-12-06T15:05:39.651Z,9.58
2017-12-06T15:07:01.727Z,9.58
2017-12-06T15:08:23.786Z,9.58
2017-12-06T15:09:45.527Z,9.61
2017-12-06T15:11:07.564Z,9.57
2017-12-06T15:12:37.729Z,9.58
2017-12-06T15:13:59.682Z,9.58
2017-12-06T15:15:21.744Z,9.54
2017-12-06T15:16:43.488Z,9.6
2017-12-06T15:18:05.275Z,9.56
2017-12-06T15:19:27.262Z,9.54
2017-12-06T15:20:49.451Z,9.56
2017-12-06T15:22:11.196Z,9.51
2017-12-06T15:23:33.252Z,9.56
2017-12-06T15:24:55.053Z,9.56
2017-12-06T15:26:17.054Z,9.57
2017-12-06T15:27:39.166Z,9.54
2017-12-06T15:29:01.239Z,9.64
2017-12-06T15:30:22.964Z,9.51
2017-12-06T15:31:44.752Z,9.54
2017-12-06T15:33:06.475Z,9.5
2017-12-06T15:34:28.737Z,9.48
2017-12-06T15:35:50.866Z,9.47
2017-12-06T15:37:13.164Z,9.47
2017-12-06T15:38:35.633Z,9.46
2017-12-06T15:39:57.492Z,9.43
2017-12-06T15:41:19.968Z,9.43
2017-12-06T15:42:42.334Z,9.47
2017-12-06T15:44:04.587Z,9.46
2017-12-06T15:45:26.303Z,9.46
2017-12-06T15:46:48.360Z,9.46
2017-12-06T15:48:10.107Z,9.42
2017-12-06T15:49:32.255Z,9.39
2017-12-06T15:50:54.344Z,9.43
2017-12-06T15:52:16.107Z,9.26
2017-12-06T15:53:38.783Z,9.32
2017-12-06T15:55:00.800Z,9.26
2017-12-06T15:56:22.525Z,9.32
2017-12-06T15:57:44.258Z,9.35
2017-12-06T15:59:06.453Z,9.28
2017-12-06T16:00:28.518Z,9.35
2017-12-06T16:01:50.771Z,9.28
2017-12-06T16:03:12.647Z,9.23
2017-12-06T16:04:35.014Z,9.24
2017-12-06T16:05:57.169Z,9.21
2017-12-06T16:07:19.435Z,9.26
2017-12-06T16:08:41.706Z,9.17
2017-12-06T16:10:04.120Z,9.17
2017-12-06T16:11:26.384Z,9.29
2017-12-06T16:12:48.325Z,9.28
2017-12-06T16:14:10.402Z,9.21
2017-12-06T16:15:32.404Z,9.2
2017-12-06T16:16:54.196Z,9.21
2017-12-06T16:18:16.207Z,9.2
2017-12-06T16:19:37.927Z,9.2
2017-12-06T16:21:00.190Z,9.14
2017-12-06T16:22:22.506Z,9.13
2017-12-06T16:23:44.802Z,9.15
2017-12-06T16:25:07.165Z,9.1
2017-12-06T16:26:29.183Z,9.14
2017-12-06T16:27:50.377Z,9.15
2017-12-06T16:29:12.664Z,9.15
2017-12-06T16:30:34.395Z,9.13
2017-12-06T16:31:56.907Z,9.17
2017-12-06T16:33:18.656Z,9.14
2017-12-06T16:34:40.410Z,9.2
2017-12-06T16:36:02.491Z,9.17
2017-12-06T16:37:24.787Z,9.21
2017-12-06T16:38:47.232Z,9.2
2017-12-06T16:40:09.247Z,9.15
2017-12-06T16:41:30.975Z,9.17
2017-12-06T16:42:53.234Z,9.17
2017-12-06T16:44:15.211Z,9.15
2017-12-06T16:45:37.218Z,9.2
2017-12-06T16:46:59.218Z,9.17
2017-12-06T16:48:21.054Z,9.13
2017-12-06T16:49:43.375Z,9.18
2017-12-06T16:51:05.800Z,9.14
2017-12-06T16:52:27.780Z,9.2
2017-12-06T16:53:50.414Z,9.2
2017-12-06T16:55:12.194Z,9.24
2017-12-06T16:56:34.038Z,9.26
2017-12-06T16:57:56.090Z,9.23
2017-12-06T16:59:18.376Z,9.18
2017-12-06T17:00:40.617Z,9.28
2017-12-06T17:02:02.604Z,9.28
2017-12-06T17:03:24.511Z,9.23
2017-12-06T17:04:46.485Z,9.2
2017-12-06T17:06:08.866Z,9.24
2017-12-06T17:07:31.135Z,9.23
2017-12-06T17:08:53.145Z,9.29
2017-12-06T17:10:15.142Z,9.28
2017-12-06T17:11:37.173Z,9.28
2017-12-06T17:12:59.166Z,9.24
2017-12-06T17:14:21.437Z,9.29
2017-12-06T17:15:43.425Z,9.36
2017-12-06T17:17:05.420Z,9.39
2017-12-06T17:18:27.856Z,9.33
2017-12-06T17:19:50.122Z,9.28
2017-12-06T17:21:12.485Z,9.33
2017-12-06T17:22:34.735Z,9.35
2017-12-06T17:23:56.786Z,9.32
2017-12-06T17:25:18.524Z,9.29
2017-12-06T17:26:40.229Z,9.29
2017-12-06T17:28:02.609Z,9.32
2017-12-06T17:29:25.077Z,9.31
2017-12-06T17:30:47.064Z,9.31
2017-12-06T17:32:09.326Z,9.26
2017-12-06T17:33:31.667Z,9.36
2017-12-06T17:34:53.504Z,9.28
2017-12-06T17:36:15.488Z,9.28
2017-12-06T17:37:37.603Z,9.32
2017-12-06T17:38:59.651Z,9.31
2017-12-06T17:40:21.702Z,9.26
2017-12-06T17:41:43.455Z,9.28
2017-12-06T17:43:05.783Z,9.32
2017-12-06T17:44:28.129Z,9.28
2017-12-06T17:45:50.138Z,9.31
2017-12-06T17:47:11.912Z,9.28
2017-12-06T17:48:34.626Z,9.29
2017-12-06T17:49:56.613Z,9.29
2017-12-06T17:51:18.641Z,9.28
2017-12-06T17:52:40.916Z,9.38
2017-12-06T17:54:03.216Z,9.29
2017-12-06T17:55:25.095Z,9.43
2017-12-06T17:56:46.837Z,9.4
2017-12-06T17:58:08.834Z,9.39
2017-12-06T17:59:31.387Z,9.4
2017-12-06T18:00:53.636Z,9.36
2017-12-06T18:02:15.636Z,9.4
2017-12-06T18:03:37.676Z,9.48
2017-12-06T18:04:59.959Z,9.43
2017-12-06T18:06:21.963Z,9.43
2017-12-06T18:07:44.007Z,9.43
2017-12-06T18:09:06.266Z,9.46
2017-12-06T18:10:28.286Z,9.43
2017-12-06T18:11:50.600Z,9.39
2017-12-06T18:13:12.604Z,9.43
2017-12-06T18:14:34.357Z,9.46
2017-12-06T18:15:56.630Z,9.42